Time;durP1;ratioP1;P1;durP2;ratioP2;P2;SDS_P1;SDS_P2;PMS_P1;PMS_P2;Temp;Humidity;BMP_temperature;BMP_pressure;BME280_temperature;BME280_humidity;BME280_pressure;Samples;Min_cycle;Max_cycle;Signal;HPM_P1;HPM_P2
2023/10/25 00:00:15;;;;;;;50.00;30.65;;;;;;;;;;4950968;29;20276;-46
2023/10/25 00:06:04;;;;;;;49.30;29.50;;;;;;;;;;4944179;29;20559;-46
2023/10/25 00:08:30;;;;;;;48.10;28.30;;;;;;;;;;4949168;29;20447;-49
2023/10/25 00:11:03;;;;;;;47.60;28.48;;;;;;;;;;4929971;29;20274;-47
2023/10/25 00:13:29;;;;;;;56.85;31.55;;;;;;;;;;4944528;29;20031;-47
2023/10/25 00:15:55;;;;;;;51.00;30.85;;;;;;;;;;4949445;29;20039;-46
2023/10/25 00:18:21;;;;;;;50.75;27.95;;;;;;;;;;4944770;29;20055;-45
2023/10/25 00:20:48;;;;;;;51.00;31.08;;;;;;;;;;4933690;29;20035;-46
2023/10/25 00:23:14;;;;;;;53.63;30.17;;;;;;;;;;4944366;29;20019;-47
2023/10/25 00:25:40;;;;;;;54.70;32.45;;;;;;;;;;4954553;29;20034;-45
2023/10/25 00:34:42;;;;;;;50.75;31.52;;;;;;;;;;4946673;29;20027;-45
2023/10/25 00:37:09;;;;;;;55.85;32.47;;;;;;;;;;4943677;29;20486;-51
2023/10/25 00:39:35;;;;;;;50.67;31.27;;;;;;;;;;4954579;29;20058;-49
2023/10/25 00:42:01;;;;;;;52.13;31.83;;;;;;;;;;4955814;29;20061;-47
2023/10/25 00:44:27;;;;;;;52.78;30.50;;;;;;;;;;4939854;29;20057;-46
2023/10/25 00:46:53;;;;;;;54.65;32.75;;;;;;;;;;4950470;29;20035;-50
2023/10/25 00:49:19;;;;;;;55.28;32.35;;;;;;;;;;4939077;29;20051;-52
2023/10/25 00:51:46;;;;;;;56.67;33.92;;;;;;;;;;4946396;29;20371;-49
2023/10/25 00:54:14;;;;;;;58.90;33.30;;;;;;;;;;4942940;29;20098;-49
2023/10/25 00:56:41;;;;;;;60.15;31.52;;;;;;;;;;4919409;29;20032;-46
2023/10/25 00:59:07;;;;;;;55.75;32.53;;;;;;;;;;4932040;29;20031;-45
2023/10/25 01:01:35;;;;;;;54.75;34.20;;;;;;;;;;4941886;29;20086;-46
2023/10/25 01:04:02;;;;;;;53.70;31.98;;;;;;;;;;4936706;29;20039;-45
2023/10/25 01:06:28;;;;;;;56.67;33.58;;;;;;;;;;4934612;29;20489;-47
2023/10/25 01:08:54;;;;;;;63.80;36.67;;;;;;;;;;4928710;29;20574;-45
2023/10/25 01:11:21;;;;;;;68.30;37.03;;;;;;;;;;4943486;29;20098;-48
2023/10/25 01:13:47;;;;;;;64.75;37.50;;;;;;;;;;4948140;29;20070;-46
2023/10/25 01:16:13;;;;;;;65.03;36.73;;;;;;;;;;4921052;29;20616;-46
2023/10/25 01:18:39;;;;;;;70.30;40.05;;;;;;;;;;4935138;29;20032;-46
2023/10/25 01:21:05;;;;;;;69.43;38.30;;;;;;;;;;4935203;29;20063;-51
2023/10/25 01:23:31;;;;;;;73.23;39.20;;;;;;;;;;4955656;29;20034;-50
2023/10/25 01:25:58;;;;;;;74.65;40.28;;;;;;;;;;4947203;29;20090;-49
2023/10/25 01:28:24;;;;;;;75.00;39.63;;;;;;;;;;4945723;29;20525;-49
2023/10/25 01:30:50;;;;;;;81.13;42.67;;;;;;;;;;4924458;29;20035;-50
2023/10/25 01:33:16;;;;;;;84.73;43.67;;;;;;;;;;4925964;29;20498;-51
2023/10/25 01:35:42;;;;;;;77.37;42.47;;;;;;;;;;4951183;29;20046;-52
2023/10/25 01:38:09;;;;;;;72.47;39.87;;;;;;;;;;4936142;29;20482;-53
2023/10/25 01:40:35;;;;;;;81.23;42.10;;;;;;;;;;4939685;29;20502;-49
2023/10/25 01:43:01;;;;;;;90.40;47.00;;;;;;;;;;4926518;29;20031;-47
2023/10/25 01:45:27;;;;;;;86.35;45.35;;;;;;;;;;4934374;29;20035;-49
2023/10/25 01:47:54;;;;;;;84.78;44.13;;;;;;;;;;4945955;29;20397;-47
2023/10/25 01:50:20;;;;;;;77.15;41.97;;;;;;;;;;4955029;29;20031;-45
2023/10/25 01:52:47;;;;;;;120.07;46.25;;;;;;;;;;4920911;29;20027;-48
2023/10/25 01:55:14;;;;;;;;;;;;;;;;;;4936076;29;20505;-45
2023/10/25 01:57:40;;;;;;;106.45;44.58;;;;;;;;;;4918391;29;20328;-48
2023/10/25 02:00:07;;;;;;;103.05;45.25;;;;;;;;;;4902905;29;20035;-48
2023/10/25 02:02:40;;;;;;;136.55;47.97;;;;;;;;;;4918589;29;20040;-45
2023/10/25 02:05:06;;;;;;;108.40;42.38;;;;;;;;;;4936355;29;20042;-45
2023/10/25 02:07:33;;;;;;;106.82;44.17;;;;;;;;;;4937342;29;20034;-47
2023/10/25 02:09:59;;;;;;;123.28;44.95;;;;;;;;;;4937212;29;20030;-47
2023/10/25 02:12:25;;;;;;;96.57;44.50;;;;;;;;;;4946715;29;20036;-46
2023/10/25 02:14:51;;;;;;;107.72;40.92;;;;;;;;;;4925069;29;20106;-46
2023/10/25 02:17:18;;;;;;;124.65;51.65;;;;;;;;;;4933933;29;20408;-49
2023/10/25 02:19:48;;;;;;;91.10;45.23;;;;;;;;;;4929473;29;20032;-49
2023/10/25 02:22:14;;;;;;;81.50;42.55;;;;;;;;;;4933406;29;20023;-49
2023/10/25 02:24:40;;;;;;;91.07;42.72;;;;;;;;;;4927235;29;20041;-45
2023/10/25 02:27:06;;;;;;;90.00;43.05;;;;;;;;;;4946081;29;20046;-50
2023/10/25 02:29:32;;;;;;;92.43;45.53;;;;;;;;;;4912961;29;20074;-45
2023/10/25 02:31:59;;;;;;;80.10;41.73;;;;;;;;;;4927273;29;20027;-45
2023/10/25 02:34:25;;;;;;;90.22;46.03;;;;;;;;;;4935073;29;20033;-51
2023/10/25 02:36:51;;;;;;;128.45;40.17;;;;;;;;;;4939751;29;20517;-48
2023/10/25 02:39:18;;;;;;;92.45;45.72;;;;;;;;;;4948384;29;20397;-48
2023/10/25 02:41:44;;;;;;;105.23;43.13;;;;;;;;;;4940233;29;20028;-48
2023/10/25 02:44:10;;;;;;;85.60;41.30;;;;;;;;;;4953474;29;20425;-51
2023/10/25 02:46:36;;;;;;;239.03;61.17;;;;;;;;;;4925317;29;20039;-45
2023/10/25 02:49:02;;;;;;;95.57;41.53;;;;;;;;;;4945533;29;20030;-50
2023/10/25 02:51:29;;;;;;;85.63;40.08;;;;;;;;;;4912247;29;20028;-46
2023/10/25 02:53:55;;;;;;;97.53;40.70;;;;;;;;;;4929723;29;20070;-47
2023/10/25 02:56:22;;;;;;;182.00;57.90;;;;;;;;;;4935057;29;20705;-52
2023/10/25 02:58:48;;;;;;;158.88;47.83;;;;;;;;;;4935315;29;20036;-52
2023/10/25 03:01:21;;;;;;;211.77;57.17;;;;;;;;;;4928736;29;20050;-45
2023/10/25 03:03:47;;;;;;;217.75;58.30;;;;;;;;;;4925334;29;20027;-45
2023/10/25 03:06:14;;;;;;;157.25;51.45;;;;;;;;;;4936027;29;20122;-45
2023/10/25 03:08:41;;;;;;;133.15;46.45;;;;;;;;;;4935324;29;20032;-47
2023/10/25 03:11:07;;;;;;;137.55;48.22;;;;;;;;;;4919437;29;20036;-46
2023/10/25 03:13:34;;;;;;;121.45;47.78;;;;;;;;;;4921932;29;20024;-45
2023/10/25 03:16:00;;;;;;;137.88;48.42;;;;;;;;;;4938551;29;20443;-51
2023/10/25 03:18:26;;;;;;;109.95;46.17;;;;;;;;;;4947886;29;20046;-45
2023/10/25 03:20:53;;;;;;;87.50;44.25;;;;;;;;;;4936824;29;20031;-44
2023/10/25 03:23:20;;;;;;;126.47;49.10;;;;;;;;;;4963019;28;20065;-50
2023/10/25 03:25:47;;;;;;;152.93;54.08;;;;;;;;;;4931386;29;20039;-46
2023/10/25 03:28:13;;;;;;;181.98;48.90;;;;;;;;;;4953293;29;20033;-46
2023/10/25 03:30:39;;;;;;;164.88;49.22;;;;;;;;;;4939257;29;20028;-45
2023/10/25 03:33:06;;;;;;;92.75;44.28;;;;;;;;;;4952831;29;20050;-45
2023/10/25 03:35:32;;;;;;;107.00;47.17;;;;;;;;;;4942244;29;20514;-50
2023/10/25 03:37:58;;;;;;;122.82;47.47;;;;;;;;;;4917896;29;20408;-49
2023/10/25 03:40:24;;;;;;;238.68;68.07;;;;;;;;;;4906527;29;20051;-49
2023/10/25 03:42:51;;;;;;;130.45;49.88;;;;;;;;;;4946724;29;20395;-47
2023/10/25 03:45:17;;;;;;;229.65;52.38;;;;;;;;;;4948064;29;20085;-51
2023/10/25 03:47:43;;;;;;;169.30;46.83;;;;;;;;;;4925293;29;20035;-47
2023/10/25 03:50:09;;;;;;;136.13;44.50;;;;;;;;;;4924776;29;20031;-47
2023/10/25 03:52:36;;;;;;;152.57;42.67;;;;;;;;;;4925804;29;20031;-46
2023/10/25 03:55:03;;;;;;;177.77;44.90;;;;;;;;;;4939967;29;20028;-49
2023/10/25 03:57:29;;;;;;;321.03;61.57;;;;;;;;;;4938361;29;20051;-47
2023/10/25 03:59:55;;;;;;;154.27;41.77;;;;;;;;;;4932037;29;20286;-46
2023/10/25 04:02:21;;;;;;;113.75;37.85;;;;;;;;;;4949858;29;20034;-46
2023/10/25 04:04:47;;;;;;;233.57;47.60;;;;;;;;;;4941482;29;20023;-46
2023/10/25 04:07:14;;;;;;;145.32;38.20;;;;;;;;;;4940143;29;20090;-46
2023/10/25 04:09:40;;;;;;;89.03;35.27;;;;;;;;;;4935067;29;20042;-46
2023/10/25 04:12:11;;;;;;;190.00;45.85;;;;;;;;;;4938964;29;20050;-44
2023/10/25 04:14:39;;;;;;;257.13;49.63;;;;;;;;;;4911655;29;20027;-46
2023/10/25 04:17:06;;;;;;;282.98;49.65;;;;;;;;;;4924468;29;20032;-46
2023/10/25 04:19:32;;;;;;;111.90;37.05;;;;;;;;;;4931169;29;20035;-46
2023/10/25 04:22:00;;;;;;;151.48;41.65;;;;;;;;;;4927332;29;20053;-45
2023/10/25 04:24:26;;;;;;;246.30;47.42;;;;;;;;;;4943875;29;20031;-47
2023/10/25 04:26:52;;;;;;;151.07;36.70;;;;;;;;;;4924640;29;20130;-45
2023/10/25 04:29:19;;;;;;;391.88;65.82;;;;;;;;;;4938412;29;20506;-45
2023/10/25 04:31:46;;;;;;;249.80;48.70;;;;;;;;;;4952717;29;20187;-45
2023/10/25 04:34:12;;;;;;;151.25;44.38;;;;;;;;;;4947942;28;20019;-46
2023/10/25 04:36:38;;;;;;;186.93;45.03;;;;;;;;;;4951355;29;20118;-45
2023/10/25 04:39:05;;;;;;;210.38;48.17;;;;;;;;;;4939141;29;20433;-45
2023/10/25 04:41:31;;;;;;;230.50;49.67;;;;;;;;;;4956092;29;20027;-45
2023/10/25 04:43:58;;;;;;;254.10;48.25;;;;;;;;;;4938516;29;20095;-44
2023/10/25 04:46:24;;;;;;;160.48;41.25;;;;;;;;;;4955902;29;20023;-46
2023/10/25 04:48:50;;;;;;;103.83;40.23;;;;;;;;;;4956169;29;20031;-45
2023/10/25 04:51:16;;;;;;;172.97;43.27;;;;;;;;;;4955662;29;20110;-47
2023/10/25 04:53:44;;;;;;;138.65;39.85;;;;;;;;;;4936863;29;20031;-45
2023/10/25 04:56:11;;;;;;;195.27;44.50;;;;;;;;;;4935400;29;20044;-44
2023/10/25 04:58:37;;;;;;;261.10;52.77;;;;;;;;;;4937922;29;20091;-44
2023/10/25 05:01:13;;;;;;;120.20;39.60;;;;;;;;;;4919821;29;20043;-43
2023/10/25 05:03:39;;;;;;;249.68;45.75;;;;;;;;;;4919704;29;20035;-45
2023/10/25 05:06:08;;;;;;;207.05;49.65;;;;;;;;;;4919312;29;20043;-45
2023/10/25 05:08:35;;;;;;;104.97;39.17;;;;;;;;;;4920229;29;20035;-48
2023/10/25 05:11:04;;;;;;;331.10;57.42;;;;;;;;;;4936090;29;20046;-47
2023/10/25 05:13:31;;;;;;;193.85;46.92;;;;;;;;;;4941628;29;20496;-45
2023/10/25 05:15:57;;;;;;;98.88;36.00;;;;;;;;;;4937006;29;20044;-45
2023/10/25 05:18:23;;;;;;;169.43;44.45;;;;;;;;;;4950800;29;20087;-47
2023/10/25 05:20:52;;;;;;;97.83;36.13;;;;;;;;;;4936924;29;20032;-47
2023/10/25 05:23:18;;;;;;;114.55;36.25;;;;;;;;;;4927061;29;20909;-46
2023/10/25 05:25:45;;;;;;;103.07;36.58;;;;;;;;;;4936824;29;20031;-45
2023/10/25 05:28:11;;;;;;;126.63;38.87;;;;;;;;;;4936023;29;20102;-44
2023/10/25 05:30:37;;;;;;;204.02;39.30;;;;;;;;;;4936225;29;20346;-46
2023/10/25 05:33:06;;;;;;;88.67;34.50;;;;;;;;;;4949687;29;20023;-46
2023/10/25 05:35:32;;;;;;;148.50;41.05;;;;;;;;;;4937952;29;20290;-44
2023/10/25 05:37:59;;;;;;;115.05;45.78;;;;;;;;;;4937922;29;20498;-45
2023/10/25 05:40:25;;;;;;;129.88;41.42;;;;;;;;;;4946405;29;20111;-45
2023/10/25 05:42:55;;;;;;;141.70;39.80;;;;;;;;;;4951942;29;20043;-45
2023/10/25 05:45:21;;;;;;;99.90;33.13;;;;;;;;;;4959717;28;20078;-44
2023/10/25 05:47:47;;;;;;;88.53;34.15;;;;;;;;;;4919378;29;20450;-45
2023/10/25 05:50:13;;;;;;;122.55;41.83;;;;;;;;;;4936009;29;20067;-45
2023/10/25 05:52:44;;;;;;;98.30;34.92;;;;;;;;;;4918912;29;20467;-46
2023/10/25 05:55:11;;;;;;;91.28;30.63;;;;;;;;;;4935763;29;20475;-46
2023/10/25 05:57:38;;;;;;;72.25;29.13;;;;;;;;;;4935486;29;20028;-47
2023/10/25 06:00:04;;;;;;;160.80;34.63;;;;;;;;;;4935726;29;20483;-44
2023/10/25 06:02:32;;;;;;;96.32;34.15;;;;;;;;;;4919140;29;20023;-44
2023/10/25 06:05:00;;;;;;;87.28;30.63;;;;;;;;;;4918594;29;20039;-45
2023/10/25 06:07:27;;;;;;;108.95;32.60;;;;;;;;;;4935330;29;20036;-45
2023/10/25 06:09:55;;;;;;;93.00;32.65;;;;;;;;;;4950809;29;20031;-45
2023/10/25 06:12:22;;;;;;;94.65;33.10;;;;;;;;;;4954415;29;20030;-45
2023/10/25 06:14:49;;;;;;;88.38;28.42;;;;;;;;;;4941311;28;20110;-47
2023/10/25 06:17:15;;;;;;;80.38;27.60;;;;;;;;;;4951797;28;20039;-46
2023/10/25 06:19:41;;;;;;;174.00;35.43;;;;;;;;;;4918450;29;20484;-47
2023/10/25 06:22:07;;;;;;;118.78;28.15;;;;;;;;;;4935384;29;20063;-48
2023/10/25 06:24:33;;;;;;;118.03;41.80;;;;;;;;;;4936171;29;20043;-49
2023/10/25 06:27:00;;;;;;;98.43;38.00;;;;;;;;;;4934934;29;20123;-45
2023/10/25 06:29:26;;;;;;;103.65;40.17;;;;;;;;;;4935339;29;20031;-45
2023/10/25 06:31:52;;;;;;;120.37;33.60;;;;;;;;;;4935189;29;20030;-47
2023/10/25 06:34:19;;;;;;;80.32;27.70;;;;;;;;;;4918148;29;20027;-46
2023/10/25 06:36:46;;;;;;;151.90;34.80;;;;;;;;;;4934849;29;20130;-47
2023/10/25 06:39:12;;;;;;;166.93;38.20;;;;;;;;;;4919410;29;20031;-46
2023/10/25 06:41:38;;;;;;;104.33;33.67;;;;;;;;;;4954098;29;20263;-47
2023/10/25 06:44:05;;;;;;;95.03;34.20;;;;;;;;;;4954182;29;20501;-49
2023/10/25 06:46:31;;;;;;;68.90;29.48;;;;;;;;;;4953897;29;20089;-45
2023/10/25 06:48:58;;;;;;;98.88;36.65;;;;;;;;;;4954151;29;20027;-48
2023/10/25 06:51:25;;;;;;;94.15;31.35;;;;;;;;;;4946353;29;20042;-49
2023/10/25 06:53:52;;;;;;;81.60;25.63;;;;;;;;;;4934903;29;20475;-46
2023/10/25 06:56:18;;;;;;;67.93;31.85;;;;;;;;;;4917014;29;20039;-50
2023/10/25 06:58:45;;;;;;;;;;;;;;;;;;4935107;29;20470;-46
2023/10/25 07:01:18;;;;;;;126.65;36.40;;;;;;;;;;4934733;29;19911;-45
2023/10/25 07:03:50;;;;;;;49.25;25.50;;;;;;;;;;4935743;29;20062;-46
2023/10/25 07:06:17;;;;;;;68.63;24.52;;;;;;;;;;4934406;29;20516;-47
2023/10/25 07:08:44;;;;;;;76.22;27.10;;;;;;;;;;4948720;29;20487;-46
2023/10/25 07:11:11;;;;;;;66.70;23.92;;;;;;;;;;4936439;29;20478;-45
2023/10/25 07:13:37;;;;;;;120.38;32.47;;;;;;;;;;4904751;29;20119;-46
2023/10/25 07:16:03;;;;;;;67.28;25.80;;;;;;;;;;4946804;28;20067;-45
2023/10/25 07:18:29;;;;;;;65.57;26.33;;;;;;;;;;4934778;29;20070;-44
2023/10/25 07:20:56;;;;;;;80.03;27.27;;;;;;;;;;4934560;29;20274;-47
2023/10/25 07:23:22;;;;;;;80.97;27.58;;;;;;;;;;4922732;29;20031;-46
2023/10/25 07:25:48;;;;;;;34.23;21.50;;;;;;;;;;4935419;29;20036;-47
2023/10/25 07:28:14;;;;;;;46.75;22.05;;;;;;;;;;4950335;29;20673;-49
2023/10/25 07:30:40;;;;;;;39.83;21.47;;;;;;;;;;4953627;29;20114;-44
2023/10/25 07:33:07;;;;;;;48.65;22.50;;;;;;;;;;4951831;29;20028;-45
2023/10/25 07:35:33;;;;;;;58.53;23.13;;;;;;;;;;4905170;29;20036;-50
2023/10/25 07:38:00;;;;;;;40.10;21.75;;;;;;;;;;4936289;29;20063;-48
2023/10/25 07:40:27;;;;;;;64.68;23.42;;;;;;;;;;4935472;29;20427;-47
2023/10/25 07:42:53;;;;;;;76.33;26.03;;;;;;;;;;4939547;29;20040;-47
2023/10/25 07:45:19;;;;;;;54.80;23.58;;;;;;;;;;4934923;29;20071;-49
2023/10/25 07:47:45;;;;;;;109.95;23.30;;;;;;;;;;4939648;29;20402;-46
2023/10/25 07:50:17;;;;;;;73.93;22.60;;;;;;;;;;4935852;29;20042;-47
2023/10/25 07:52:45;;;;;;;102.95;26.38;;;;;;;;;;4953263;28;20564;-45
2023/10/25 07:55:11;;;;;;;79.18;24.40;;;;;;;;;;4958919;28;20049;-45
2023/10/25 07:57:38;;;;;;;49.35;23.23;;;;;;;;;;4972305;28;20035;-45
2023/10/25 08:00:05;;;;;;;63.55;24.17;;;;;;;;;;4972639;28;20556;-46
2023/10/25 08:02:38;;;;;;;51.60;21.17;;;;;;;;;;4972535;28;20034;-45
2023/10/25 08:05:04;;;;;;;61.77;21.97;;;;;;;;;;4939302;28;20034;-49
2023/10/25 08:07:31;;;;;;;40.17;19.35;;;;;;;;;;4972423;28;20085;-48
2023/10/25 08:09:58;;;;;;;32.15;18.98;;;;;;;;;;4958776;28;20374;-46
2023/10/25 08:12:24;;;;;;;35.20;19.55;;;;;;;;;;4961255;28;20028;-45
2023/10/25 08:14:50;;;;;;;34.42;19.48;;;;;;;;;;4937595;29;20036;-46
2023/10/25 08:17:16;;;;;;;34.17;21.30;;;;;;;;;;4937466;29;20589;-44
2023/10/25 08:19:42;;;;;;;43.03;21.73;;;;;;;;;;4920666;29;20059;-45
2023/10/25 08:22:09;;;;;;;38.53;20.38;;;;;;;;;;4937613;29;20027;-45
2023/10/25 08:24:35;;;;;;;45.93;21.43;;;;;;;;;;4904675;29;20042;-45
2023/10/25 08:27:01;;;;;;;52.20;22.30;;;;;;;;;;4937358;29;20036;-45
2023/10/25 08:29:27;;;;;;;49.45;20.95;;;;;;;;;;4936721;29;20087;-46
2023/10/25 08:31:53;;;;;;;49.17;20.00;;;;;;;;;;4937318;29;20166;-45
2023/10/25 08:34:20;;;;;;;56.87;20.17;;;;;;;;;;4937063;29;20028;-44
2023/10/25 08:36:46;;;;;;;36.13;18.92;;;;;;;;;;4936410;29;20658;-45
2023/10/25 08:39:12;;;;;;;34.33;19.73;;;;;;;;;;4936570;29;20039;-44
2023/10/25 08:41:39;;;;;;;30.60;19.07;;;;;;;;;;4936521;29;20024;-44
2023/10/25 08:44:06;;;;;;;30.55;16.73;;;;;;;;;;4936826;29;20035;-46
2023/10/25 08:46:34;;;;;;;31.05;18.33;;;;;;;;;;4935247;29;20046;-44
2023/10/25 08:49:00;;;;;;;29.13;17.27;;;;;;;;;;4936998;29;20024;-44
2023/10/25 08:51:27;;;;;;;32.20;18.43;;;;;;;;;;4936919;29;20036;-47
2023/10/25 08:53:55;;;;;;;27.60;17.88;;;;;;;;;;4937319;29;20266;-47
2023/10/25 08:56:22;;;;;;;26.15;17.48;;;;;;;;;;4919444;29;20529;-46
2023/10/25 08:58:48;;;;;;;29.37;18.60;;;;;;;;;;4936655;29;20091;-45
2023/10/25 09:01:14;;;;;;;30.45;19.30;;;;;;;;;;4936687;29;20271;-44
2023/10/25 09:03:41;;;;;;;36.90;19.77;;;;;;;;;;4919661;29;20126;-45
2023/10/25 09:06:08;;;;;;;54.13;25.92;;;;;;;;;;4919323;29;20486;-46
2023/10/25 09:08:35;;;;;;;46.13;25.55;;;;;;;;;;4919566;29;20032;-44
2023/10/25 09:11:03;;;;;;;51.92;24.77;;;;;;;;;;4936544;29;20115;-43
2023/10/25 09:13:29;;;;;;;50.17;27.45;;;;;;;;;;4936248;29;20024;-44
2023/10/25 09:16:06;;;;;;;44.58;25.15;;;;;;;;;;4936271;29;20503;-44
2023/10/25 09:18:33;;;;;;;49.65;25.98;;;;;;;;;;4936459;29;20032;-45
2023/10/25 09:20:59;;;;;;;47.65;25.83;;;;;;;;;;4918548;29;20035;-45
2023/10/25 09:23:25;;;;;;;49.40;26.20;;;;;;;;;;4936216;29;20039;-45
2023/10/25 09:25:51;;;;;;;49.08;24.50;;;;;;;;;;4936198;29;20039;-45
2023/10/25 09:28:27;;;;;;;55.42;27.13;;;;;;;;;;4935940;29;20031;-44
2023/10/25 09:30:55;;;;;;;40.25;24.38;;;;;;;;;;4936228;29;20054;-47
2023/10/25 09:33:21;;;;;;;29.42;18.08;;;;;;;;;;4936102;29;20031;-45
2023/10/25 09:35:48;;;;;;;31.83;18.45;;;;;;;;;;4935899;29;20411;-45
2023/10/25 09:38:14;;;;;;;28.90;19.30;;;;;;;;;;4918983;29;20099;-44
2023/10/25 09:40:43;;;;;;;29.50;18.33;;;;;;;;;;4935938;29;20051;-44
2023/10/25 09:43:24;;;;;;;23.00;14.57;;;;;;;;;;4935753;29;20111;-46
2023/10/25 09:45:54;;;;;;;26.10;16.80;;;;;;;;;;4918554;29;20031;-43
2023/10/25 09:48:20;;;;;;;23.67;14.98;;;;;;;;;;4938012;29;20027;-45
2023/10/25 09:50:57;;;;;;;23.85;15.30;;;;;;;;;;4940030;29;20107;-48
2023/10/25 09:53:37;;;;;;;22.00;15.43;;;;;;;;;;4944430;29;20087;-44
2023/10/25 09:56:04;;;;;;;24.23;15.65;;;;;;;;;;4930636;29;20032;-44
2023/10/25 09:58:33;;;;;;;21.77;14.63;;;;;;;;;;4954777;29;20031;-44
2023/10/25 10:01:00;;;;;;;25.60;16.30;;;;;;;;;;4954856;29;20038;-45
2023/10/25 10:03:38;;;;;;;21.67;15.35;;;;;;;;;;4954786;29;20033;-47
2023/10/25 10:06:09;;;;;;;25.30;16.65;;;;;;;;;;4937378;29;20039;-45
2023/10/25 10:08:43;;;;;;;22.42;15.68;;;;;;;;;;4948166;29;20032;-45
2023/10/25 10:11:15;;;;;;;17.65;12.88;;;;;;;;;;4931193;29;20031;-44
2023/10/25 10:13:42;;;;;;;18.20;12.45;;;;;;;;;;4936988;29;20491;-44
2023/10/25 10:16:11;;;;;;;15.93;12.27;;;;;;;;;;4934878;29;20087;-46
2023/10/25 10:18:47;;;;;;;18.55;13.32;;;;;;;;;;4946482;29;20027;-45
2023/10/25 10:21:14;;;;;;;19.33;13.85;;;;;;;;;;4934424;29;20383;-45
2023/10/25 10:23:49;;;;;;;21.85;13.90;;;;;;;;;;4935550;29;20042;-48
2023/10/25 10:26:35;;;;;;;19.35;14.32;;;;;;;;;;4919848;29;20094;-45
2023/10/25 10:29:02;;;;;;;21.85;15.27;;;;;;;;;;4920511;29;20027;-45
2023/10/25 10:31:28;;;;;;;18.55;15.20;;;;;;;;;;4922484;29;20031;-45
2023/10/25 10:33:54;;;;;;;21.10;14.83;;;;;;;;;;4936157;29;20493;-47
2023/10/25 10:36:25;;;;;;;23.85;15.63;;;;;;;;;;4939864;29;20082;-47
2023/10/25 10:39:10;;;;;;;22.35;15.27;;;;;;;;;;4926923;29;20032;-47
2023/10/25 10:41:36;;;;;;;21.00;14.52;;;;;;;;;;4943573;29;20520;-48
2023/10/25 10:44:03;;;;;;;19.90;14.32;;;;;;;;;;4945372;29;20132;-48
2023/10/25 10:46:31;;;;;;;20.77;13.98;;;;;;;;;;4943494;29;20486;-46
2023/10/25 10:49:01;;;;;;;16.92;12.93;;;;;;;;;;4940348;29;20063;-49
2023/10/25 10:51:27;;;;;;;17.67;14.07;;;;;;;;;;4938846;29;20027;-48
2023/10/25 10:53:54;;;;;;;21.38;14.25;;;;;;;;;;4945900;29;20062;-46
2023/10/25 10:56:20;;;;;;;20.65;13.90;;;;;;;;;;4931526;29;20034;-48
2023/10/25 10:58:46;;;;;;;21.90;15.07;;;;;;;;;;4951550;29;20110;-52
2023/10/25 11:01:13;;;;;;;20.83;14.93;;;;;;;;;;4944761;29;20036;-50
2023/10/25 11:03:39;;;;;;;21.70;15.02;;;;;;;;;;4928285;29;20490;-49
2023/10/25 11:06:05;;;;;;;20.93;14.93;;;;;;;;;;4943998;29;20028;-46
2023/10/25 11:08:32;;;;;;;25.40;16.73;;;;;;;;;;4920561;29;20031;-47
2023/10/25 11:10:59;;;;;;;22.88;14.82;;;;;;;;;;4934550;29;20031;-49
2023/10/25 11:13:25;;;;;;;19.13;15.82;;;;;;;;;;4917536;29;20039;-47
2023/10/25 11:16:01;;;;;;;22.13;15.40;;;;;;;;;;4936178;29;20082;-47
2023/10/25 11:18:27;;;;;;;24.00;16.02;;;;;;;;;;4942825;29;20757;-47
2023/10/25 11:20:53;;;;;;;22.00;15.20;;;;;;;;;;4913401;29;20065;-47
2023/10/25 11:23:19;;;;;;;19.97;14.87;;;;;;;;;;4936391;29;20030;-49
2023/10/25 11:25:46;;;;;;;19.30;13.80;;;;;;;;;;4922377;29;20354;-47
2023/10/25 11:28:12;;;;;;;20.67;14.85;;;;;;;;;;4922356;29;20143;-46
2023/10/25 11:30:41;;;;;;;20.88;15.68;;;;;;;;;;4937112;29;20534;-46
2023/10/25 11:33:09;;;;;;;22.75;16.50;;;;;;;;;;4937197;29;20023;-51
2023/10/25 11:35:37;;;;;;;37.38;32.95;;;;;;;;;;4943188;29;20397;-53
2023/10/25 11:38:05;;;;;;;22.15;16.15;;;;;;;;;;4950165;29;20054;-46
2023/10/25 11:40:39;;;;;;;22.38;15.52;;;;;;;;;;4952556;29;20058;-48
2023/10/25 11:43:08;;;;;;;24.42;16.30;;;;;;;;;;4954286;28;20086;-50
2023/10/25 11:45:37;;;;;;;23.77;17.95;;;;;;;;;;4953124;29;20100;-46
2023/10/25 11:48:04;;;;;;;19.02;15.02;;;;;;;;;;4943595;29;20031;-46
2023/10/25 11:50:30;;;;;;;21.98;15.10;;;;;;;;;;4949491;29;20114;-50
2023/10/25 11:52:58;;;;;;;21.00;16.55;;;;;;;;;;4950794;29;20024;-47
2023/10/25 11:55:25;;;;;;;18.40;15.00;;;;;;;;;;4933745;29;20031;-45
2023/10/25 11:57:52;;;;;;;19.52;14.68;;;;;;;;;;4939649;29;20150;-50
2023/10/25 12:00:18;;;;;;;133.05;112.82;;;;;;;;;;4954570;29;20118;-46
2023/10/25 12:02:44;;;;;;;17.07;13.67;;;;;;;;;;4954206;29;20043;-47
2023/10/25 12:05:11;;;;;;;18.07;14.30;;;;;;;;;;4952983;29;20163;-51
2023/10/25 12:07:37;;;;;;;18.50;14.32;;;;;;;;;;4946217;29;20035;-45
2023/10/25 12:10:06;;;;;;;19.90;13.87;;;;;;;;;;4953821;29;20486;-46
2023/10/25 12:12:33;;;;;;;17.90;14.40;;;;;;;;;;4947237;29;20027;-51
2023/10/25 12:14:59;;;;;;;;;;;;;;;;;;4937428;29;20037;-46
2023/10/25 12:17:25;;;;;;;19.50;14.32;;;;;;;;;;4939077;29;19912;-48
2023/10/25 12:19:51;;;;;;;29.67;13.50;;;;;;;;;;4927098;29;20490;-47
2023/10/25 12:22:18;;;;;;;19.13;13.50;;;;;;;;;;4952650;28;20038;-50
2023/10/25 12:24:48;;;;;;;16.73;13.65;;;;;;;;;;4923130;29;20386;-47
2023/10/25 12:27:15;;;;;;;14.80;12.45;;;;;;;;;;4937111;29;20032;-50
2023/10/25 12:29:41;;;;;;;14.93;12.60;;;;;;;;;;4940481;29;20394;-51
2023/10/25 12:32:07;;;;;;;14.50;12.53;;;;;;;;;;4924491;29;20051;-48
2023/10/25 12:34:34;;;;;;;17.60;13.15;;;;;;;;;;4955278;29;20279;-48
2023/10/25 12:37:00;;;;;;;15.40;12.50;;;;;;;;;;4929243;29;20070;-46
2023/10/25 12:39:26;;;;;;;16.48;12.82;;;;;;;;;;4938689;29;20028;-49
2023/10/25 12:41:53;;;;;;;14.98;12.93;;;;;;;;;;4937627;29;20086;-49
2023/10/25 12:44:19;;;;;;;15.45;12.27;;;;;;;;;;4939064;29;20067;-49
2023/10/25 12:46:45;;;;;;;15.85;12.50;;;;;;;;;;4950930;29;20118;-47
2023/10/25 12:49:18;;;;;;;16.10;12.77;;;;;;;;;;4952611;29;20035;-51
2023/10/25 12:51:44;;;;;;;15.40;12.43;;;;;;;;;;4936991;29;20533;-49
2023/10/25 12:54:10;;;;;;;14.50;11.85;;;;;;;;;;4936537;29;20023;-52
2023/10/25 12:56:37;;;;;;;12.95;11.57;;;;;;;;;;4919088;29;20075;-50
2023/10/25 12:59:03;;;;;;;;;;;;;;;;;;4921058;29;20118;-47
2023/10/25 13:01:30;;;;;;;14.93;11.77;;;;;;;;;;4947684;29;19910;-47
2023/10/25 13:03:56;;;;;;;12.32;11.02;;;;;;;;;;4955958;29;20046;-46
2023/10/25 13:06:22;;;;;;;13.60;12.07;;;;;;;;;;4940042;29;20080;-50
2023/10/25 13:08:48;;;;;;;12.65;11.20;;;;;;;;;;4952666;29;20032;-50
2023/10/25 13:11:14;;;;;;;16.02;12.20;;;;;;;;;;4951322;29;20115;-48
2023/10/25 13:13:41;;;;;;;14.27;12.75;;;;;;;;;;4936824;29;20031;-50
2023/10/25 13:16:07;;;;;;;13.82;12.35;;;;;;;;;;4927372;29;20065;-51
2023/10/25 13:18:33;;;;;;;12.73;11.00;;;;;;;;;;4941336;29;20031;-52
2023/10/25 13:20:59;;;;;;;12.07;10.80;;;;;;;;;;4945960;29;20042;-49
2023/10/25 13:23:26;;;;;;;13.98;12.15;;;;;;;;;;4942938;29;20031;-48
2023/10/25 13:25:53;;;;;;;17.08;11.57;;;;;;;;;;4936512;29;20032;-52
2023/10/25 13:28:19;;;;;;;;;;;;;;;;;;4928810;29;20754;-48
2023/10/25 13:30:45;;;;;;;13.93;10.85;;;;;;;;;;4945643;29;19911;-47
2023/10/25 13:33:13;;;;;;;14.57;11.98;;;;;;;;;;4941285;28;20413;-52
2023/10/25 13:35:39;;;;;;;13.23;11.60;;;;;;;;;;4921830;29;20042;-47
2023/10/25 13:38:05;;;;;;;13.82;11.55;;;;;;;;;;4955131;29;20038;-49
2023/10/25 13:40:31;;;;;;;12.05;10.73;;;;;;;;;;4947816;29;20036;-50
2023/10/25 13:42:57;;;;;;;12.10;10.88;;;;;;;;;;4936162;29;20039;-50
2023/10/25 13:45:24;;;;;;;19.23;10.80;;;;;;;;;;4936021;29;20504;-50
2023/10/25 13:47:50;;;;;;;12.02;10.38;;;;;;;;;;4918799;29;20419;-54
2023/10/25 13:50:18;;;;;;;12.65;11.07;;;;;;;;;;4935890;29;20044;-53
2023/10/25 13:52:44;;;;;;;13.10;11.15;;;;;;;;;;4943391;29;20438;-54
2023/10/25 13:55:11;;;;;;;12.43;10.45;;;;;;;;;;4954842;29;20133;-54
2023/10/25 13:57:37;;;;;;;12.07;10.80;;;;;;;;;;4954823;29;20039;-51
2023/10/25 14:00:07;;;;;;;15.27;11.73;;;;;;;;;;4954995;29;20233;-51
2023/10/25 14:02:40;;;;;;;12.27;10.80;;;;;;;;;;4954441;28;20046;-52
2023/10/25 14:05:06;;;;;;;13.85;10.38;;;;;;;;;;4954590;29;20079;-53
2023/10/25 14:07:33;;;;;;;13.43;10.98;;;;;;;;;;4954101;28;20105;-53
2023/10/25 14:09:59;;;;;;;14.95;10.60;;;;;;;;;;4949993;29;20036;-52
2023/10/25 14:12:27;;;;;;;13.35;10.60;;;;;;;;;;4921553;29;20079;-50
2023/10/25 14:14:54;;;;;;;15.52;11.82;;;;;;;;;;4937806;29;20031;-53
2023/10/25 14:17:20;;;;;;;14.48;12.13;;;;;;;;;;4951469;29;20114;-55
2023/10/25 14:19:46;;;;;;;11.80;10.57;;;;;;;;;;4935311;29;20391;-53
2023/10/25 14:22:13;;;;;;;23.02;12.45;;;;;;;;;;4918243;29;20044;-52
2023/10/25 14:24:39;;;;;;;15.55;11.98;;;;;;;;;;4935307;29;20067;-48